Jur'Evec, Russia
Current Conditions -  °F | °C
As of 8:00 AM on Sunday 26 Oct 2014 (Local Time) from UWGG Reporting Station
Broken Clouds Broken Clouds  
Wind Chill:   Ceiling: 23000
Heat Index: 16°   Visibility: 4mi
Dew Point: 14°   Wind: 4mph
Humidity: 93%   Direction: 200°SSW
Pressure: 30.59"   Gusts: NA
Location:  57.33°N, 43.12°E
Report Text: UWGG 260500Z 20002MPS 7000 BKN230 M09/M10 Q1036 NOSIG 36820050RMK QFE770
Loading
Personal Weather Stations






























Interactive Weather Map
Tropical Storm Tracking
New forecast layout! Learn more

10-Day Weather Forecast

Advertisements
Track Severe Weather on mobile